Cochrane, Canada
Current Conditions -  °F | °C
As of 4:39 AM on Wednesday 26 Nov 2014 (Local Time) from CYBW Reporting Station
Scattered Clouds Scattered Clouds  
Wind Chill: 14°   Ceiling: Unl
Heat Index: 21°   Visibility: 5mi
Dew Point: 21°   Wind: 6mph
Humidity: 100%   Direction: 100°E
Pressure: 30.07"   Gusts: NA
Location:  51.2°N, 114.45°W
Report Text: CYBW 261139Z AUTO 10005KT 090V170 5SM SCT120 M06/M06 A3007 RMK SLP242
Loading
Personal Weather Stations






























Interactive Weather Map New forecast layout! Learn more

10-Day Weather Forecast

Advertisements
Track Severe Weather on mobile